KSQI/SQI METAR and TAF weather

Enter ICAO airport designator
Station Type Date Time Source
KSQI METAR 2019/10/21 03:56 UTC NOAA

KSQI 210356Z AUTO 10004KT 9SM SCT036 11/10 A2985 RMK AO2 SLP975 T01110100 PNO $


Station Type Date Time Source
KSQI Decoded METAR 2019/10/21 03:56 UTC NOAA

Sterling Rockfalls, IL, United States (KSQI) 41-45N 089-40W
Oct 20, 2019 - 11:56 PM EDT / 2019.10.21 0356 UTC
Wind: from the E (100 degrees) at 5 MPH (4 KT):0
Visibility: 9 mile(s):0
Sky conditions: partly cloudy
Temperature: 52.0 F (11.1 C)
Dew Point: 50.0 F (10.0 C)
Relative Humidity: 92%
Pressure (altimeter): 29.85 in. Hg (1010 hPa)
ob: KSQI 210356Z AUTO 10004KT 9SM SCT036 11/10 A2985 RMK AO2 SLP975 T01110100 PNO
cycle: 4

Station Type Date Time Source
KSQI TAF UTC NOAA

Error!

Example: see airport list